createdAt,value
2022-09-20T00:01:32.928Z,10.70
2022-09-20T00:04:04.894Z,10.70
2022-09-20T00:06:32.030Z,10.70
2022-09-20T00:09:01.257Z,10.70
2022-09-20T00:11:32.237Z,10.70
2022-09-20T00:14:01.717Z,10.70
2022-09-20T00:16:32.734Z,10.70
2022-09-20T00:19:03.887Z,10.70
2022-09-20T00:21:34.038Z,10.70
2022-09-20T00:24:01.752Z,10.68
2022-09-20T00:26:29.224Z,10.62
2022-09-20T00:28:58.140Z,10.60
2022-09-20T00:31:24.952Z,10.60
2022-09-20T00:34:14.595Z,10.60
2022-09-20T00:36:41.306Z,10.60
2022-09-20T00:39:12.110Z,10.58
2022-09-20T00:41:38.750Z,10.50
2022-09-20T00:45:13.102Z,10.58
2022-09-20T00:47:49.183Z,10.60
2022-09-20T00:50:33.172Z,10.60
2022-09-20T00:53:10.823Z,10.60
2022-09-20T00:55:45.561Z,10.60
2022-09-20T00:58:13.957Z,10.60
2022-09-20T01:00:43.280Z,10.68
2022-09-20T01:03:13.202Z,10.66
2022-09-20T01:05:41.169Z,10.60
2022-09-20T01:08:09.505Z,10.60
2022-09-20T01:10:36.384Z,10.60
2022-09-20T01:13:03.788Z,10.60
2022-09-20T01:15:33.500Z,10.60
2022-09-20T01:18:02.310Z,10.60
2022-09-20T01:20:36.802Z,10.60
2022-09-20T01:23:37.620Z,10.60
2022-09-20T01:26:50.984Z,10.60
2022-09-20T01:29:51.009Z,10.60
2022-09-20T01:32:24.093Z,10.58
2022-09-20T01:34:58.171Z,10.52
2022-09-20T01:37:51.322Z,10.52
2022-09-20T01:40:33.424Z,10.50
2022-09-20T01:43:21.640Z,10.50
2022-09-20T01:45:49.940Z,10.50
2022-09-20T01:48:32.961Z,10.42
2022-09-20T01:51:36.142Z,10.46
2022-09-20T01:54:32.613Z,10.40
2022-09-20T01:57:17.894Z,10.40
2022-09-20T02:00:13.704Z,10.40
2022-09-20T02:03:45.272Z,10.40
2022-09-20T02:06:42.297Z,10.40
2022-09-20T02:09:44.175Z,10.40
2022-09-20T02:12:38.925Z,10.40
2022-09-20T02:15:34.092Z,10.38
2022-09-20T02:18:48.627Z,10.40
2022-09-20T02:21:27.801Z,10.40
2022-09-20T02:24:14.840Z,10.38
2022-09-20T02:27:08.145Z,10.30
2022-09-20T02:29:57.987Z,10.30
2022-09-20T02:32:54.310Z,10.30
2022-09-20T02:36:00.851Z,10.30
2022-09-20T02:38:58.582Z,10.30
2022-09-20T02:41:44.113Z,10.30
2022-09-20T02:45:01.252Z,10.26
2022-09-20T02:47:39.832Z,10.26
2022-09-20T02:50:35.619Z,10.26
2022-09-20T02:53:48.589Z,10.30
2022-09-20T02:56:35.555Z,10.30
2022-09-20T02:59:40.602Z,10.30
2022-09-20T03:02:51.334Z,10.30
2022-09-20T03:05:27.563Z,10.30
2022-09-20T03:08:12.672Z,10.30
2022-09-20T03:10:50.506Z,10.30
2022-09-20T03:13:46.495Z,10.30
2022-09-20T03:16:16.134Z,10.30
2022-09-20T03:19:01.111Z,10.30
2022-09-20T03:22:31.423Z,10.30
2022-09-20T03:25:28.699Z,10.24
2022-09-20T03:28:04.266Z,10.24
2022-09-20T03:30:50.821Z,10.20
2022-09-20T03:34:01.103Z,10.20
2022-09-20T03:36:39.608Z,10.20
2022-09-20T03:39:37.270Z,10.20
2022-09-20T03:42:06.851Z,10.20
2022-09-20T03:45:20.057Z,10.18
2022-09-20T03:48:34.807Z,10.20
2022-09-20T03:51:23.680Z,10.20
2022-09-20T03:54:57.518Z,10.20
2022-09-20T03:57:42.141Z,10.26
2022-09-20T04:00:30.177Z,10.30
2022-09-20T04:03:36.133Z,10.30
2022-09-20T04:06:08.641Z,10.26
2022-09-20T04:08:56.763Z,10.20
2022-09-20T04:11:45.835Z,10.20
2022-09-20T04:14:17.259Z,10.20
2022-09-20T04:16:56.119Z,10.20
2022-09-20T04:19:37.866Z,10.26
2022-09-20T04:22:07.574Z,10.20
2022-09-20T04:25:29.527Z,10.20
2022-09-20T04:28:11.986Z,10.20
2022-09-20T04:30:44.083Z,10.20
2022-09-20T04:33:45.479Z,10.20
2022-09-20T04:36:57.284Z,10.20
2022-09-20T04:39:38.480Z,10.20
2022-09-20T04:42:51.869Z,10.10
2022-09-20T04:45:51.665Z,10.18
2022-09-20T04:48:49.985Z,10.20
2022-09-20T04:52:04.146Z,10.20
2022-09-20T04:55:12.183Z,10.20
2022-09-20T04:58:21.714Z,10.20
2022-09-20T05:01:19.629Z,10.24
2022-09-20T05:04:27.072Z,10.30
2022-09-20T05:07:18.883Z,10.30
2022-09-20T05:10:33.415Z,10.30
2022-09-20T05:13:28.662Z,10.30
2022-09-20T05:16:06.378Z,10.30
2022-09-20T05:18:59.479Z,10.30
2022-09-20T05:22:24.257Z,10.30
2022-09-20T05:25:21.554Z,10.30
2022-09-20T05:28:21.873Z,10.30
2022-09-20T05:31:02.905Z,10.38
2022-09-20T05:33:57.686Z,10.40
2022-09-20T05:36:55.255Z,10.40
2022-09-20T05:39:49.944Z,10.40
2022-09-20T05:42:32.787Z,10.46
2022-09-20T05:45:52.237Z,10.50
2022-09-20T05:49:02.920Z,10.40
2022-09-20T05:52:10.227Z,10.40
2022-09-20T05:55:24.731Z,10.42
2022-09-20T05:58:24.840Z,10.50
2022-09-20T06:01:16.087Z,10.50
2022-09-20T06:03:55.664Z,10.56
2022-09-20T06:06:45.258Z,10.60
2022-09-20T06:09:34.130Z,10.60
2022-09-20T06:12:26.151Z,10.70
2022-09-20T06:15:12.203Z,10.70
2022-09-20T06:18:06.616Z,10.70
2022-09-20T06:20:43.954Z,10.80
2022-09-20T06:23:11.156Z,10.80
2022-09-20T06:26:07.691Z,10.80
2022-09-20T06:28:41.296Z,10.90
2022-09-20T06:31:10.113Z,10.90
2022-09-20T06:34:05.355Z,11.00
2022-09-20T06:36:54.195Z,11.00
2022-09-20T06:40:12.578Z,11.04
2022-09-20T06:42:39.498Z,11.10
2022-09-20T06:45:06.738Z,11.10
2022-09-20T06:47:38.050Z,11.12
2022-09-20T06:50:06.346Z,11.16
2022-09-20T06:52:35.638Z,11.14
2022-09-20T06:55:07.406Z,11.12
2022-09-20T06:57:37.975Z,11.10
2022-09-20T07:00:10.168Z,11.10
2022-09-20T07:02:36.796Z,11.18
2022-09-20T07:05:03.886Z,11.20
2022-09-20T07:07:30.529Z,11.30
2022-09-20T07:09:58.768Z,11.30
2022-09-20T07:12:25.670Z,11.30
2022-09-20T07:14:52.589Z,11.40
2022-09-20T07:17:19.401Z,11.40
2022-09-20T07:19:45.954Z,11.50
2022-09-20T07:22:12.854Z,11.50
2022-09-20T07:24:41.234Z,11.50
2022-09-20T07:27:07.962Z,11.60
2022-09-20T07:29:35.309Z,11.70
2022-09-20T07:32:02.433Z,11.74
2022-09-20T07:34:29.508Z,11.80
2022-09-20T07:36:57.394Z,11.80
2022-09-20T07:39:24.111Z,11.80
2022-09-20T07:41:51.267Z,11.70
2022-09-20T07:44:22.047Z,11.70
2022-09-20T07:46:54.980Z,11.66
2022-09-20T07:49:22.818Z,11.60
2022-09-20T07:51:50.359Z,11.50
2022-09-20T07:54:17.899Z,11.40
2022-09-20T07:56:45.987Z,11.40
2022-09-20T07:59:16.676Z,11.50
2022-09-20T08:01:43.753Z,11.60
2022-09-20T08:04:11.188Z,11.70
2022-09-20T08:06:43.948Z,11.60
2022-09-20T08:09:12.678Z,11.60
2022-09-20T08:11:43.494Z,11.60
2022-09-20T08:14:15.606Z,11.70
2022-09-20T08:16:49.731Z,11.70
2022-09-20T08:19:22.875Z,11.70
2022-09-20T08:21:53.953Z,11.70
2022-09-20T08:24:21.289Z,11.72
2022-09-20T08:26:48.474Z,11.80
2022-09-20T08:29:15.439Z,11.92
2022-09-20T08:31:42.586Z,12.00
2022-09-20T08:34:12.925Z,12.10
2022-09-20T08:36:45.754Z,12.16
2022-09-20T08:42:24.914Z,12.56
2022-09-20T08:44:59.151Z,12.60
2022-09-20T08:47:31.022Z,12.50
2022-09-20T08:49:58.378Z,12.42
2022-09-20T08:52:37.419Z,12.40
2022-09-20T08:55:20.165Z,12.36
2022-09-20T08:57:53.553Z,12.50
2022-09-20T09:00:33.102Z,12.30
2022-09-20T09:03:26.819Z,12.30
2022-09-20T09:05:58.035Z,12.34
2022-09-20T09:08:30.915Z,12.34
2022-09-20T09:11:04.747Z,12.50
2022-09-20T09:13:53.274Z,12.60
2022-09-20T09:16:30.181Z,12.60
2022-09-20T09:19:52.599Z,12.60
2022-09-20T09:22:37.289Z,12.80
2022-09-20T09:25:24.293Z,12.70
2022-09-20T09:28:03.683Z,12.74
2022-09-20T09:30:32.870Z,12.94
2022-09-20T09:33:25.276Z,13.20
2022-09-20T09:36:07.143Z,13.76
2022-09-20T09:38:45.539Z,15.26
2022-09-20T09:41:20.372Z,16.20
2022-09-20T09:44:10.353Z,16.84
2022-09-20T09:46:40.563Z,17.76
2022-09-20T09:49:19.962Z,17.54
2022-09-20T09:52:01.627Z,17.18
2022-09-20T09:54:36.456Z,16.38
2022-09-20T09:57:26.363Z,15.80
2022-09-20T10:00:20.255Z,15.38
2022-09-20T10:03:34.686Z,15.20
2022-09-20T10:06:22.204Z,15.20
2022-09-20T10:09:19.490Z,15.42
2022-09-20T10:12:27.593Z,15.64
2022-09-20T10:15:28.789Z,15.40
2022-09-20T10:18:35.117Z,15.20
2022-09-20T10:21:12.357Z,15.16
2022-09-20T10:24:04.008Z,14.90
2022-09-20T10:26:54.488Z,14.64
2022-09-20T10:29:40.527Z,14.38
2022-09-20T10:32:16.146Z,14.30
2022-09-20T10:35:06.220Z,14.50
2022-09-20T10:37:54.124Z,14.50
2022-09-20T10:41:08.824Z,14.40
2022-09-20T10:44:18.626Z,14.30
2022-09-20T10:47:03.491Z,14.30
2022-09-20T10:50:00.582Z,14.40
2022-09-20T10:52:41.649Z,14.52
2022-09-20T10:55:40.334Z,14.60
2022-09-20T10:58:37.932Z,14.60
2022-09-20T11:01:30.052Z,14.70
2022-09-20T11:04:28.715Z,14.82
2022-09-20T11:07:04.543Z,15.00
2022-09-20T11:09:38.349Z,15.00
2022-09-20T11:12:33.288Z,15.04
2022-09-20T11:15:23.310Z,15.28
2022-09-20T11:18:04.035Z,15.40
2022-09-20T11:20:40.504Z,15.46
2022-09-20T11:23:23.434Z,15.50
2022-09-20T11:25:56.812Z,15.52
2022-09-20T11:28:43.324Z,15.60
2022-09-20T11:31:46.739Z,15.40
2022-09-20T11:34:28.679Z,15.48
2022-09-20T11:37:03.091Z,15.56
2022-09-20T11:39:47.180Z,15.50
2022-09-20T11:42:23.931Z,15.60
2022-09-20T11:44:51.396Z,15.70
2022-09-20T11:47:56.360Z,15.80
2022-09-20T11:51:02.505Z,15.60
2022-09-20T11:54:19.756Z,15.60
2022-09-20T11:56:56.731Z,15.90
2022-09-20T11:59:30.770Z,15.72
2022-09-20T12:02:01.805Z,15.60
2022-09-20T12:04:35.330Z,15.48
2022-09-20T12:07:28.317Z,15.50
2022-09-20T12:10:01.701Z,15.80
2022-09-20T12:12:47.177Z,16.00
2022-09-20T12:15:28.256Z,16.20
2022-09-20T12:18:47.906Z,16.40
2022-09-20T12:21:17.890Z,16.50
2022-09-20T12:23:56.738Z,16.30
2022-09-20T12:26:23.274Z,16.10
2022-09-20T12:28:54.084Z,16.10
2022-09-20T12:31:29.720Z,16.10
2022-09-20T12:34:02.435Z,16.20
2022-09-20T12:36:36.469Z,16.10
2022-09-20T12:39:35.380Z,16.10
2022-09-20T12:42:11.596Z,16.00
2022-09-20T12:44:57.947Z,15.90
2022-09-20T12:47:29.544Z,15.94
2022-09-20T12:50:17.945Z,15.80
2022-09-20T12:52:50.510Z,15.80
2022-09-20T12:55:57.842Z,15.90
2022-09-20T12:58:53.524Z,16.00
2022-09-20T13:01:23.358Z,16.20
2022-09-20T13:03:53.011Z,16.10
2022-09-20T13:06:19.542Z,15.90
2022-09-20T13:09:00.158Z,15.80
2022-09-20T13:11:28.094Z,15.90
2022-09-20T13:14:20.652Z,15.60
2022-09-20T13:16:56.412Z,15.50
2022-09-20T13:19:34.567Z,15.50
2022-09-20T13:22:15.046Z,15.40
2022-09-20T13:24:47.013Z,15.48
2022-09-20T13:27:25.838Z,15.60
2022-09-20T13:29:53.410Z,15.70
2022-09-20T13:32:29.466Z,15.60
2022-09-20T13:35:14.868Z,15.80
2022-09-20T13:37:57.467Z,16.10
2022-09-20T13:40:35.121Z,16.20
2022-09-20T13:43:22.999Z,16.10
2022-09-20T13:45:56.610Z,16.10
2022-09-20T13:48:28.411Z,15.90
2022-09-20T13:50:57.130Z,16.00
2022-09-20T13:53:42.606Z,16.00
2022-09-20T13:56:28.502Z,16.10
2022-09-20T13:58:58.802Z,15.90
2022-09-20T14:01:35.209Z,15.80
2022-09-20T14:04:24.514Z,15.70
2022-09-20T14:06:54.342Z,15.70
2022-09-20T14:09:31.540Z,15.70
2022-09-20T14:11:59.895Z,15.70
2022-09-20T14:14:27.602Z,15.70
2022-09-20T14:16:56.941Z,15.70
2022-09-20T14:19:32.016Z,15.80
2022-09-20T14:22:07.662Z,15.90
2022-09-20T14:24:37.950Z,15.90
2022-09-20T14:27:18.083Z,16.00
2022-09-20T14:29:50.632Z,16.08
2022-09-20T14:32:17.259Z,16.20
2022-09-20T14:34:47.596Z,16.38
2022-09-20T14:37:30.501Z,16.30
2022-09-20T14:40:04.732Z,16.30
2022-09-20T14:42:43.663Z,16.40
2022-09-20T14:45:26.327Z,16.50
2022-09-20T14:48:11.706Z,16.50
2022-09-20T14:50:43.279Z,16.40
2022-09-20T14:53:10.961Z,16.40
2022-09-20T14:56:04.329Z,16.42
2022-09-20T14:58:31.817Z,16.60
2022-09-20T15:01:23.823Z,16.60
2022-09-20T15:03:51.389Z,16.50
2022-09-20T15:06:18.699Z,16.46
2022-09-20T15:08:46.862Z,16.60
2022-09-20T15:11:18.517Z,16.50
2022-09-20T15:13:45.829Z,16.50
2022-09-20T15:16:14.971Z,16.40
2022-09-20T15:18:43.619Z,16.22
2022-09-20T15:21:11.406Z,16.20
2022-09-20T15:23:39.580Z,16.10
2022-09-20T15:26:07.446Z,16.20
2022-09-20T15:28:34.909Z,16.10
2022-09-20T15:31:01.633Z,16.14
2022-09-20T15:33:32.076Z,16.20
2022-09-20T15:35:59.601Z,16.30
2022-09-20T15:38:27.782Z,16.10
2022-09-20T15:40:54.832Z,16.04
2022-09-20T15:43:26.383Z,16.10
2022-09-20T15:46:00.657Z,16.00
2022-09-20T15:48:31.157Z,16.00
2022-09-20T15:51:00.424Z,15.90
2022-09-20T15:53:27.296Z,15.90
2022-09-20T15:55:53.923Z,15.90
2022-09-20T15:58:21.686Z,15.80
2022-09-20T16:00:49.864Z,15.80
2022-09-20T16:03:17.430Z,15.70
2022-09-20T16:05:44.071Z,15.50
2022-09-20T16:08:10.780Z,15.40
2022-09-20T16:10:38.667Z,15.30
2022-09-20T16:13:05.280Z,15.30
2022-09-20T16:15:31.869Z,15.20
2022-09-20T16:18:17.523Z,15.20
2022-09-20T16:20:44.050Z,15.10
2022-09-20T16:23:10.742Z,15.00
2022-09-20T16:25:37.338Z,15.02
2022-09-20T16:28:03.911Z,15.04
2022-09-20T16:30:30.479Z,15.00
2022-09-20T16:32:57.069Z,15.00
2022-09-20T16:35:23.655Z,14.90
2022-09-20T16:37:50.922Z,14.80
2022-09-20T16:40:17.641Z,14.80
2022-09-20T16:42:50.194Z,14.80
2022-09-20T16:45:19.136Z,14.62
2022-09-20T16:47:46.677Z,14.60
2022-09-20T16:50:13.373Z,14.50
2022-09-20T16:52:40.159Z,14.40
2022-09-20T16:55:08.210Z,14.30
2022-09-20T16:57:36.816Z,14.20
2022-09-20T17:00:04.604Z,14.10
2022-09-20T17:02:31.250Z,14.10
2022-09-20T17:04:57.920Z,14.06
2022-09-20T17:07:24.559Z,14.00
2022-09-20T17:09:51.408Z,13.90
2022-09-20T17:12:21.867Z,13.80
2022-09-20T17:14:48.503Z,13.66
2022-09-20T17:17:15.141Z,13.60
2022-09-20T17:19:42.476Z,13.50
2022-09-20T17:22:09.188Z,13.40
2022-09-20T17:24:35.800Z,13.40
2022-09-20T17:27:04.209Z,13.38
2022-09-20T17:29:30.843Z,13.30
2022-09-20T17:31:59.904Z,13.30
2022-09-20T17:34:28.047Z,13.24
2022-09-20T17:36:55.359Z,13.20
2022-09-20T17:39:22.311Z,13.20
2022-09-20T17:41:50.645Z,13.20
2022-09-20T17:44:19.100Z,13.20
2022-09-20T17:46:49.769Z,13.20
2022-09-20T17:49:22.640Z,13.10
2022-09-20T17:51:55.294Z,13.10
2022-09-20T17:54:24.574Z,13.08
2022-09-20T17:56:53.896Z,13.00
2022-09-20T17:59:21.196Z,12.90
2022-09-20T18:01:51.185Z,12.90
2022-09-20T18:04:20.920Z,12.80
2022-09-20T18:06:50.994Z,12.80
2022-09-20T18:09:22.540Z,12.70
2022-09-20T18:11:53.016Z,12.70
2022-09-20T18:14:27.302Z,12.60
2022-09-20T18:17:00.979Z,12.60
2022-09-20T18:19:33.019Z,12.60
2022-09-20T18:22:01.809Z,12.60
2022-09-20T18:24:29.567Z,12.60
2022-09-20T18:26:56.156Z,12.60
2022-09-20T18:29:23.573Z,12.60
2022-09-20T18:31:54.493Z,12.60
2022-09-20T18:34:25.445Z,12.60
2022-09-20T18:36:57.438Z,12.50
2022-09-20T18:39:27.508Z,12.50
2022-09-20T18:41:55.623Z,12.40
2022-09-20T18:44:23.589Z,12.40
2022-09-20T18:46:54.668Z,12.42
2022-09-20T18:49:21.645Z,12.50
2022-09-20T18:51:49.460Z,12.50
2022-09-20T18:54:16.933Z,12.50
2022-09-20T18:56:47.435Z,12.50
2022-09-20T18:59:18.557Z,12.40
2022-09-20T19:01:54.997Z,12.40
2022-09-20T19:04:43.363Z,12.32
2022-09-20T19:07:36.775Z,12.30
2022-09-20T19:10:20.581Z,12.30
2022-09-20T19:13:35.825Z,12.30
2022-09-20T19:16:21.588Z,12.36
2022-09-20T19:19:22.064Z,12.40
2022-09-20T19:22:21.907Z,12.38
2022-09-20T19:25:44.160Z,12.38
2022-09-20T19:28:14.636Z,12.30
2022-09-20T19:30:42.722Z,12.30
2022-09-20T19:33:19.190Z,12.30
2022-09-20T19:35:50.434Z,12.30
2022-09-20T19:38:37.603Z,12.30
2022-09-20T19:41:27.439Z,12.30
2022-09-20T19:44:20.609Z,12.38
2022-09-20T19:47:25.490Z,12.40
2022-09-20T19:50:08.260Z,12.42
2022-09-20T19:52:35.259Z,12.50
2022-09-20T19:55:02.270Z,12.50
2022-09-20T19:57:49.470Z,12.50
2022-09-20T20:00:20.777Z,12.50
2022-09-20T20:02:48.465Z,12.60
2022-09-20T20:05:19.110Z,12.60
2022-09-20T20:08:20.931Z,12.60
2022-09-20T20:11:28.056Z,12.60
2022-09-20T20:14:22.632Z,12.68
2022-09-20T20:17:33.317Z,12.60
2022-09-20T20:20:07.877Z,12.60
2022-09-20T20:22:40.912Z,12.58
2022-09-20T20:25:28.685Z,12.50
2022-09-20T20:27:55.315Z,12.50
2022-09-20T20:30:21.932Z,12.30
2022-09-20T20:32:48.575Z,12.30
2022-09-20T20:35:17.436Z,12.30
2022-09-20T20:37:44.606Z,12.30
2022-09-20T20:40:13.972Z,12.30
2022-09-20T20:42:42.261Z,12.20
2022-09-20T20:45:11.175Z,12.10
2022-09-20T20:47:40.065Z,12.10
2022-09-20T20:50:07.067Z,12.10
2022-09-20T20:52:33.706Z,12.10
2022-09-20T20:55:00.338Z,12.08
2022-09-20T20:57:28.041Z,12.00
2022-09-20T20:59:54.646Z,12.00
2022-09-20T21:02:21.758Z,12.00
2022-09-20T21:04:48.405Z,11.90
2022-09-20T21:07:16.550Z,11.90
2022-09-20T21:09:43.315Z,11.90
2022-09-20T21:12:09.922Z,11.80
2022-09-20T21:14:36.502Z,11.80
2022-09-20T21:17:03.145Z,11.78
2022-09-20T21:19:29.733Z,11.70
2022-09-20T21:21:56.365Z,11.70
2022-09-20T21:24:23.603Z,11.60
2022-09-20T21:26:50.941Z,11.50
2022-09-20T21:29:17.613Z,11.40
2022-09-20T21:31:46.838Z,11.40
2022-09-20T21:34:15.710Z,11.30
2022-09-20T21:36:44.555Z,11.30
2022-09-20T21:39:11.453Z,11.30
2022-09-20T21:41:40.031Z,11.30
2022-09-20T21:44:10.778Z,11.30
2022-09-20T21:46:42.078Z,11.30
2022-09-20T21:49:11.353Z,11.30
2022-09-20T21:51:41.369Z,11.24
2022-09-20T21:54:08.846Z,11.20
2022-09-20T21:56:37.614Z,11.22
2022-09-20T21:59:06.381Z,11.22
2022-09-20T22:01:36.632Z,11.20
2022-09-20T22:04:12.103Z,11.20
2022-09-20T22:06:42.108Z,11.20
2022-09-20T22:09:12.502Z,11.20
2022-09-20T22:11:48.953Z,11.10
2022-09-20T22:14:19.085Z,11.10
2022-09-20T22:16:47.936Z,11.00
2022-09-20T22:19:17.602Z,11.00
2022-09-20T22:21:48.018Z,11.00
2022-09-20T22:24:16.726Z,10.98
2022-09-20T22:26:47.387Z,10.90
2022-09-20T22:29:15.442Z,10.90
2022-09-20T22:31:45.492Z,10.90
2022-09-20T22:34:21.656Z,10.80
2022-09-20T22:36:48.498Z,10.80
2022-09-20T22:39:16.069Z,10.80
2022-09-20T22:41:44.437Z,10.70
2022-09-20T22:44:11.543Z,10.70
2022-09-20T22:46:38.785Z,10.70
2022-09-20T22:49:07.737Z,10.62
2022-09-20T22:51:35.542Z,10.60
2022-09-20T22:54:09.175Z,10.60
2022-09-20T22:56:36.826Z,10.58
2022-09-20T22:59:07.087Z,10.50
2022-09-20T23:01:37.652Z,10.42
2022-09-20T23:04:08.829Z,10.42
2022-09-20T23:06:42.598Z,10.40
2022-09-20T23:09:12.885Z,10.40
2022-09-20T23:11:42.633Z,10.40
2022-09-20T23:14:13.418Z,10.40
2022-09-20T23:16:40.777Z,10.30
2022-09-20T23:19:08.838Z,10.30
2022-09-20T23:21:38.305Z,10.30
2022-09-20T23:24:08.660Z,10.24
2022-09-20T23:26:38.163Z,10.20
2022-09-20T23:29:11.970Z,10.20
2022-09-20T23:31:45.285Z,10.18
2022-09-20T23:34:14.015Z,10.10
2022-09-20T23:36:41.782Z,10.00
2022-09-20T23:39:10.288Z,10.00
2022-09-20T23:41:38.095Z,10.00
2022-09-20T23:44:06.786Z,10.00
2022-09-20T23:46:34.274Z,9.90
2022-09-20T23:49:01.215Z,9.90
2022-09-20T23:51:29.486Z,9.90
2022-09-20T23:53:56.878Z,9.90
2022-09-20T23:56:24.017Z,9.90
2022-09-20T23:58:51.105Z,9.88
